createdAt,value
2022-12-24T00:00:15.099Z,16.43
2022-12-24T00:02:42.606Z,23.67
2022-12-24T00:05:10.768Z,20.80
2022-12-24T00:07:38.236Z,18.43
2022-12-24T00:10:06.001Z,19.93
2022-12-24T00:12:33.457Z,18.13
2022-12-24T00:15:00.910Z,16.00
2022-12-24T00:17:28.286Z,13.17
2022-12-24T00:19:55.641Z,14.60
2022-12-24T00:22:23.071Z,14.63
2022-12-24T00:24:50.412Z,13.47
2022-12-24T00:27:17.837Z,12.57
2022-12-24T00:29:45.185Z,8.77
2022-12-24T00:32:12.595Z,6.47
2022-12-24T00:34:40.605Z,6.73
2022-12-24T00:37:08.025Z,6.00
2022-12-24T00:39:35.588Z,5.13
2022-12-24T00:42:02.938Z,5.40
2022-12-24T00:44:30.303Z,4.43
2022-12-24T00:46:57.624Z,4.40
2022-12-24T00:49:24.965Z,5.60
2022-12-24T00:51:52.301Z,5.20
2022-12-24T00:54:19.656Z,4.53
2022-12-24T00:56:46.971Z,4.63
2022-12-24T00:59:14.368Z,3.97
2022-12-24T01:01:41.834Z,3.67
2022-12-24T01:04:28.211Z,3.70
2022-12-24T01:06:56.127Z,2.87
2022-12-24T01:09:23.543Z,2.93
2022-12-24T01:11:50.886Z,4.37
2022-12-24T01:14:18.288Z,3.23
2022-12-24T01:16:45.645Z,3.50
2022-12-24T01:19:13.036Z,3.63
2022-12-24T01:21:40.481Z,2.70
2022-12-24T01:24:07.922Z,3.77
2022-12-24T01:26:35.354Z,3.37
2022-12-24T01:29:02.691Z,3.57
2022-12-24T01:31:30.141Z,4.00
2022-12-24T01:33:57.543Z,3.73
2022-12-24T01:36:25.007Z,3.13
2022-12-24T01:38:52.603Z,3.57
2022-12-24T01:41:40.463Z,3.70
2022-12-24T01:44:18.106Z,3.70
2022-12-24T01:46:45.838Z,2.97
2022-12-24T01:49:15.217Z,2.53
2022-12-24T01:51:50.847Z,3.60
2022-12-24T01:54:24.408Z,3.10
2022-12-24T01:56:58.487Z,3.60
2022-12-24T01:59:26.289Z,4.60
2022-12-24T02:01:54.346Z,5.17
2022-12-24T02:04:45.037Z,2.23
2022-12-24T02:07:12.431Z,4.20
2022-12-24T02:09:40.009Z,3.97
2022-12-24T02:12:08.133Z,2.53
2022-12-24T02:14:35.690Z,3.60
2022-12-24T02:17:11.437Z,5.70
2022-12-24T02:19:50.287Z,2.73
2022-12-24T02:22:50.045Z,3.23
2022-12-24T02:25:34.342Z,4.27
2022-12-24T02:28:09.970Z,4.03
2022-12-24T02:30:42.571Z,3.90
2022-12-24T02:33:25.884Z,3.77
2022-12-24T02:36:07.323Z,2.70
2022-12-24T02:38:49.049Z,5.60
2022-12-24T02:41:27.049Z,4.97
2022-12-24T02:43:55.633Z,4.60
2022-12-24T02:46:26.101Z,3.70
2022-12-24T02:48:53.507Z,2.37
2022-12-24T02:51:25.271Z,5.63
2022-12-24T02:53:52.989Z,4.10
2022-12-24T02:56:40.549Z,4.67
2022-12-24T02:59:14.011Z,3.47
2022-12-24T03:02:01.890Z,4.07
2022-12-24T03:04:41.085Z,4.20
2022-12-24T03:07:16.046Z,3.97
2022-12-24T03:09:46.386Z,4.97
2022-12-24T03:12:17.445Z,3.30
2022-12-24T03:14:45.286Z,5.83
2022-12-24T03:17:12.834Z,4.50
2022-12-24T03:19:40.841Z,5.57
2022-12-24T03:22:09.577Z,4.17
2022-12-24T03:24:36.954Z,4.27
2022-12-24T03:27:06.557Z,4.90
2022-12-24T03:29:33.889Z,4.67
2022-12-24T03:32:02.518Z,5.73
2022-12-24T03:34:29.869Z,5.53
2022-12-24T03:36:58.088Z,3.97
2022-12-24T03:39:25.341Z,4.37
2022-12-24T03:41:52.595Z,4.60
2022-12-24T03:44:19.834Z,2.60
2022-12-24T03:46:47.072Z,4.77
2022-12-24T03:49:14.381Z,4.93
2022-12-24T03:51:41.591Z,5.53
2022-12-24T03:54:08.854Z,3.30
2022-12-24T03:56:38.842Z,6.20
2022-12-24T03:59:06.189Z,5.47
2022-12-24T04:01:33.756Z,4.47
2022-12-24T04:04:01.111Z,6.63
2022-12-24T04:06:28.439Z,5.43
2022-12-24T04:08:55.783Z,5.00
2022-12-24T04:11:23.105Z,5.10
2022-12-24T04:13:50.364Z,4.67
2022-12-24T04:16:17.806Z,6.77
2022-12-24T04:18:45.410Z,4.73
2022-12-24T04:21:12.716Z,5.53
2022-12-24T04:23:40.630Z,5.20
2022-12-24T04:26:09.017Z,5.20
2022-12-24T04:28:36.849Z,5.77
2022-12-24T04:31:05.611Z,5.33
2022-12-24T04:33:32.921Z,6.70
2022-12-24T04:36:00.845Z,4.83
2022-12-24T04:38:28.401Z,5.53
2022-12-24T04:41:22.692Z,4.80
2022-12-24T04:43:52.053Z,5.63
2022-12-24T04:46:20.930Z,5.03
2022-12-24T04:48:49.434Z,6.20
2022-12-24T04:51:17.471Z,6.90
2022-12-24T04:53:44.795Z,5.93
2022-12-24T04:56:16.468Z,5.90
2022-12-24T04:58:43.788Z,6.87
2022-12-24T05:01:15.426Z,5.47
2022-12-24T05:03:42.697Z,5.57
2022-12-24T05:06:12.390Z,9.70
2022-12-24T05:08:39.835Z,6.30
2022-12-24T05:11:07.561Z,6.67
2022-12-24T05:13:44.040Z,6.70
2022-12-24T05:16:14.260Z,7.33
2022-12-24T05:18:41.683Z,7.53
2022-12-24T05:21:09.975Z,7.27
2022-12-24T05:23:56.593Z,7.37
2022-12-24T05:26:35.149Z,6.73
2022-12-24T05:29:03.240Z,7.97
2022-12-24T05:31:31.491Z,5.90
2022-12-24T05:33:58.782Z,7.80
2022-12-24T05:36:26.050Z,7.13
2022-12-24T05:38:53.401Z,8.43
2022-12-24T05:41:20.884Z,7.87
2022-12-24T05:43:48.128Z,6.33
2022-12-24T05:46:16.879Z,5.80
2022-12-24T05:48:44.175Z,5.97
2022-12-24T05:51:12.626Z,7.40
2022-12-24T05:53:39.924Z,7.07
2022-12-24T05:56:12.129Z,6.33
2022-12-24T05:58:39.653Z,6.27
2022-12-24T06:01:08.468Z,5.60
2022-12-24T06:03:36.833Z,6.43
2022-12-24T06:06:11.679Z,6.80
2022-12-24T06:08:42.731Z,7.73
2022-12-24T06:11:12.217Z,6.77
2022-12-24T06:13:40.112Z,6.40
2022-12-24T06:16:08.614Z,5.73
2022-12-24T06:18:36.991Z,5.87
2022-12-24T06:21:04.649Z,4.10
2022-12-24T06:23:33.099Z,7.40
2022-12-24T06:26:01.748Z,5.00
2022-12-24T06:28:29.773Z,6.03
2022-12-24T06:31:02.350Z,5.97
2022-12-24T06:33:30.474Z,6.37
2022-12-24T06:35:57.716Z,7.77
2022-12-24T06:38:24.965Z,6.93
2022-12-24T06:40:52.426Z,6.40
2022-12-24T06:43:19.703Z,5.73
2022-12-24T06:45:47.961Z,6.43
2022-12-24T06:48:16.268Z,7.37
2022-12-24T06:50:43.951Z,6.77
2022-12-24T06:53:11.955Z,6.87
2022-12-24T06:55:39.248Z,7.57
2022-12-24T06:58:06.693Z,5.83
2022-12-24T07:00:34.237Z,6.93
2022-12-24T07:03:01.506Z,7.93
2022-12-24T07:05:28.852Z,9.37
2022-12-24T07:07:56.420Z,7.10
2022-12-24T07:10:23.665Z,9.10
2022-12-24T07:12:50.889Z,8.53
2022-12-24T07:15:18.205Z,7.17
2022-12-24T07:17:45.629Z,9.13
2022-12-24T07:20:15.111Z,7.30
2022-12-24T07:22:43.206Z,8.43
2022-12-24T07:25:11.079Z,8.40
2022-12-24T07:27:38.806Z,8.80
2022-12-24T07:30:06.632Z,10.10
2022-12-24T07:32:33.973Z,8.50
2022-12-24T07:35:01.296Z,10.97
2022-12-24T07:37:28.583Z,8.60
2022-12-24T07:39:55.865Z,9.77
2022-12-24T07:42:23.603Z,9.77
2022-12-24T07:44:51.312Z,9.90
2022-12-24T07:47:18.572Z,9.87
2022-12-24T07:49:45.837Z,10.90
2022-12-24T07:52:13.098Z,12.60
2022-12-24T07:54:40.406Z,12.23
2022-12-24T07:57:07.782Z,10.97
2022-12-24T07:59:35.010Z,12.60
2022-12-24T08:02:02.520Z,10.87
2022-12-24T08:04:33.292Z,12.23
2022-12-24T08:07:00.610Z,10.50
2022-12-24T08:09:27.863Z,11.30
2022-12-24T08:11:55.143Z,12.93
2022-12-24T08:14:22.423Z,11.50
2022-12-24T08:16:49.755Z,9.27
2022-12-24T08:19:17.041Z,9.87
2022-12-24T08:21:44.428Z,10.53
2022-12-24T08:24:11.642Z,8.70
2022-12-24T08:26:39.504Z,9.70
2022-12-24T08:29:06.917Z,10.37
2022-12-24T08:31:36.567Z,10.10
2022-12-24T08:34:04.770Z,10.97
2022-12-24T08:36:32.161Z,10.00
2022-12-24T08:38:59.596Z,10.53
2022-12-24T08:41:26.856Z,10.20
2022-12-24T08:43:54.147Z,10.87
2022-12-24T08:46:21.472Z,10.23
2022-12-24T08:48:48.854Z,9.63
2022-12-24T08:51:16.176Z,10.40
2022-12-24T08:53:43.390Z,9.70
2022-12-24T08:56:10.950Z,9.67
2022-12-24T08:58:38.357Z,10.27
2022-12-24T09:01:15.095Z,11.53
2022-12-24T09:03:42.587Z,11.60
2022-12-24T09:06:10.208Z,9.87
2022-12-24T09:08:37.474Z,11.13
2022-12-24T09:11:05.820Z,12.60
2022-12-24T09:13:33.196Z,11.60
2022-12-24T09:16:00.464Z,10.67
2022-12-24T09:18:27.740Z,9.13
2022-12-24T09:21:02.138Z,9.03
2022-12-24T09:23:30.197Z,9.73
2022-12-24T09:25:57.445Z,8.53
2022-12-24T09:28:24.874Z,8.23
2022-12-24T09:30:56.499Z,9.00
2022-12-24T09:33:23.907Z,8.33
2022-12-24T09:35:52.366Z,9.13
2022-12-24T09:38:21.118Z,8.33
2022-12-24T09:40:48.721Z,9.50
2022-12-24T09:43:23.664Z,9.73
2022-12-24T09:46:09.524Z,9.03
2022-12-24T09:48:38.761Z,8.97
2022-12-24T09:51:06.060Z,8.30
2022-12-24T09:53:42.904Z,8.07
2022-12-24T09:56:15.146Z,8.20
2022-12-24T09:58:47.789Z,7.90
2022-12-24T10:01:16.510Z,8.17
2022-12-24T10:03:44.178Z,7.73
2022-12-24T10:06:17.952Z,7.90
2022-12-24T10:08:52.600Z,9.37
2022-12-24T10:11:37.105Z,7.00
2022-12-24T10:14:44.834Z,8.67
2022-12-24T10:17:32.434Z,8.40
2022-12-24T10:19:59.640Z,7.70
2022-12-24T10:22:26.861Z,6.50
2022-12-24T10:25:00.285Z,6.93
2022-12-24T10:27:30.367Z,7.40
2022-12-24T10:30:01.522Z,5.97
2022-12-24T10:32:38.096Z,3.97
2022-12-24T10:35:14.660Z,2.60
2022-12-24T10:37:43.110Z,2.50
2022-12-24T10:40:16.057Z,4.90
2022-12-24T10:42:50.646Z,4.20
2022-12-24T10:45:21.204Z,5.10
2022-12-24T10:47:50.174Z,5.47
2022-12-24T10:50:35.369Z,8.23
2022-12-24T10:53:31.954Z,7.90
2022-12-24T10:56:04.221Z,9.87
2022-12-24T10:58:31.629Z,9.27
2022-12-24T11:00:58.993Z,10.50
2022-12-24T11:03:30.420Z,11.43
2022-12-24T11:06:01.739Z,10.33
2022-12-24T11:08:29.052Z,9.90
2022-12-24T11:11:00.846Z,9.90
2022-12-24T11:13:40.028Z,9.23
2022-12-24T11:16:13.545Z,7.30
2022-12-24T11:18:50.898Z,9.23
2022-12-24T11:21:29.404Z,9.43
2022-12-24T11:23:58.159Z,11.23
2022-12-24T11:26:27.191Z,8.30
2022-12-24T11:29:06.219Z,8.57
2022-12-24T11:31:37.505Z,8.27
2022-12-24T11:34:23.925Z,8.00
2022-12-24T11:36:51.902Z,8.13
2022-12-24T11:39:23.876Z,8.53
2022-12-24T11:41:51.569Z,8.17
2022-12-24T11:44:26.638Z,8.00
2022-12-24T11:46:56.999Z,9.00
2022-12-24T11:49:28.666Z,8.83
2022-12-24T11:52:19.475Z,9.40
2022-12-24T11:54:46.900Z,7.80
2022-12-24T11:57:15.725Z,7.73
2022-12-24T11:59:45.412Z,8.63
2022-12-24T12:02:22.589Z,8.77
2022-12-24T12:04:51.969Z,10.00
2022-12-24T12:07:22.402Z,9.23
2022-12-24T12:09:52.639Z,7.37
2022-12-24T12:12:24.878Z,7.77
2022-12-24T12:14:54.370Z,6.70
2022-12-24T12:17:27.768Z,6.97
2022-12-24T12:19:55.059Z,6.80
2022-12-24T12:22:30.406Z,8.00
2022-12-24T12:24:59.002Z,6.40
2022-12-24T12:27:32.894Z,6.83
2022-12-24T12:30:04.991Z,9.10
2022-12-24T12:32:53.042Z,9.07
2022-12-24T12:35:23.606Z,7.60
2022-12-24T12:37:56.591Z,8.70
2022-12-24T12:40:27.406Z,7.73
2022-12-24T12:43:03.105Z,9.03
2022-12-24T12:45:37.033Z,6.77
2022-12-24T12:48:10.416Z,6.90
2022-12-24T12:50:43.458Z,6.70
2022-12-24T12:53:22.700Z,8.13
2022-12-24T12:55:53.002Z,6.47
2022-12-24T12:58:29.925Z,7.00
2022-12-24T13:01:01.401Z,9.43
2022-12-24T13:03:28.700Z,9.82
2022-12-24T13:05:56.003Z,9.07
2022-12-24T13:08:32.286Z,6.37
2022-12-24T13:11:05.691Z,6.87
2022-12-24T13:13:47.086Z,7.17
2022-12-24T13:16:25.429Z,8.10
2022-12-24T13:19:08.898Z,7.17
2022-12-24T13:21:36.315Z,7.37
2022-12-24T13:24:22.925Z,8.57
2022-12-24T13:27:16.857Z,6.53
2022-12-24T13:29:52.453Z,8.13
2022-12-24T13:32:22.473Z,8.13
2022-12-24T13:34:57.040Z,7.93
2022-12-24T13:37:32.931Z,8.20
2022-12-24T13:40:03.750Z,7.70
2022-12-24T13:42:46.885Z,8.10
2022-12-24T13:45:32.267Z,9.20
2022-12-24T13:48:02.294Z,8.30
2022-12-24T13:50:41.739Z,6.83
2022-12-24T13:53:24.447Z,7.10
2022-12-24T13:55:53.313Z,7.03
2022-12-24T13:58:21.441Z,7.43
2022-12-24T14:00:56.048Z,7.90
2022-12-24T14:03:25.946Z,7.20
2022-12-24T14:05:55.953Z,6.53
2022-12-24T14:08:23.177Z,6.43
2022-12-24T14:11:11.496Z,5.60
2022-12-24T14:13:38.757Z,6.23
2022-12-24T14:16:12.640Z,6.27
2022-12-24T14:18:41.296Z,9.97
2022-12-24T14:21:15.256Z,8.90
2022-12-24T14:24:01.537Z,6.00
2022-12-24T14:26:30.725Z,6.07
2022-12-24T14:29:07.121Z,7.23
2022-12-24T14:31:34.562Z,6.53
2022-12-24T14:34:08.944Z,6.83
2022-12-24T14:36:36.909Z,6.93
2022-12-24T14:39:06.522Z,7.17
2022-12-24T14:41:39.999Z,6.57
2022-12-24T14:44:30.879Z,8.43
2022-12-24T14:47:13.176Z,10.37
2022-12-24T14:50:02.385Z,10.23
2022-12-24T14:53:03.859Z,10.30
2022-12-24T14:55:31.154Z,9.07
2022-12-24T14:58:17.401Z,8.17
2022-12-24T15:00:45.189Z,9.70
2022-12-24T15:03:16.361Z,8.40
2022-12-24T15:05:44.012Z,8.60
2022-12-24T15:08:16.001Z,6.70
2022-12-24T15:10:50.965Z,10.40
2022-12-24T15:13:37.005Z,18.00
2022-12-24T15:16:06.004Z,10.93
2022-12-24T15:18:34.993Z,9.20
2022-12-24T15:21:06.695Z,12.88
2022-12-24T15:23:36.405Z,8.80
2022-12-24T15:26:22.364Z,8.23
2022-12-24T15:28:49.808Z,9.17
2022-12-24T15:31:21.595Z,7.20
2022-12-24T15:33:49.739Z,8.20
2022-12-24T15:36:18.568Z,7.10
2022-12-24T15:38:47.049Z,6.50
2022-12-24T15:41:19.201Z,7.10
2022-12-24T15:43:47.671Z,8.00
2022-12-24T15:46:19.495Z,6.57
2022-12-24T15:48:47.110Z,5.17
2022-12-24T15:51:21.064Z,5.43
2022-12-24T15:53:49.507Z,6.80
2022-12-24T15:56:37.235Z,6.40
2022-12-24T15:59:19.565Z,5.77
2022-12-24T16:01:48.118Z,6.97
2022-12-24T16:04:16.967Z,7.13
2022-12-24T16:07:04.893Z,6.03
2022-12-24T16:09:32.386Z,6.13
2022-12-24T16:12:03.443Z,7.50
2022-12-24T16:14:31.896Z,6.13
2022-12-24T16:16:59.541Z,5.90
2022-12-24T16:19:39.390Z,6.50
2022-12-24T16:22:25.983Z,6.30
2022-12-24T16:24:55.470Z,5.83
2022-12-24T16:27:22.859Z,7.90
2022-12-24T16:29:50.300Z,8.07
2022-12-24T16:32:35.034Z,7.67
2022-12-24T16:35:03.885Z,7.43
2022-12-24T16:37:31.302Z,9.47
2022-12-24T16:39:59.106Z,7.27
2022-12-24T16:42:45.280Z,12.50
2022-12-24T16:45:12.609Z,11.43
2022-12-24T16:47:43.093Z,8.77
2022-12-24T16:50:16.581Z,8.70
2022-12-24T16:52:43.961Z,10.53
2022-12-24T16:55:14.044Z,11.60
2022-12-24T16:57:41.857Z,12.50
2022-12-24T17:00:10.004Z,9.03
2022-12-24T17:02:37.510Z,11.93
2022-12-24T17:05:05.154Z,11.43
2022-12-24T17:07:32.537Z,10.27
2022-12-24T17:09:59.937Z,11.10
2022-12-24T17:12:27.326Z,12.33
2022-12-24T17:14:54.672Z,10.43
2022-12-24T17:17:29.411Z,10.60
2022-12-24T17:19:57.652Z,10.27
2022-12-24T17:22:27.303Z,9.27
2022-12-24T17:24:55.388Z,11.83
2022-12-24T17:27:23.172Z,9.37
2022-12-24T17:29:50.928Z,10.50
2022-12-24T17:32:18.302Z,12.60
2022-12-24T17:34:45.723Z,11.90
2022-12-24T17:37:13.160Z,10.53
2022-12-24T17:39:40.642Z,12.93
2022-12-24T17:42:08.187Z,12.27
2022-12-24T17:44:35.673Z,12.23
2022-12-24T17:47:05.164Z,11.43
2022-12-24T17:49:32.876Z,11.63
2022-12-24T17:52:00.432Z,12.73
2022-12-24T17:54:27.828Z,12.40
2022-12-24T17:56:55.203Z,10.83
2022-12-24T17:59:22.616Z,12.50
2022-12-24T18:01:50.103Z,13.40
2022-12-24T18:04:17.718Z,11.03
2022-12-24T18:06:49.290Z,11.60
2022-12-24T18:09:17.339Z,10.20
2022-12-24T18:11:44.699Z,11.97
2022-12-24T18:14:14.234Z,11.53
2022-12-24T18:16:42.153Z,12.47
2022-12-24T18:19:11.271Z,13.60
2022-12-24T18:21:38.914Z,12.20
2022-12-24T18:24:06.462Z,12.30
2022-12-24T18:26:34.088Z,13.17
2022-12-24T18:29:04.593Z,13.23
2022-12-24T18:31:33.640Z,13.03
2022-12-24T18:34:02.465Z,19.47
2022-12-24T18:36:29.975Z,24.87
2022-12-24T18:38:57.619Z,23.80
2022-12-24T18:41:26.215Z,16.87
2022-12-24T18:43:54.046Z,15.87
2022-12-24T18:46:23.724Z,14.23
2022-12-24T18:48:51.513Z,13.70
2022-12-24T18:51:19.827Z,14.83
2022-12-24T18:53:47.224Z,14.03
2022-12-24T18:56:19.328Z,13.97
2022-12-24T18:58:47.082Z,14.07
2022-12-24T19:01:15.983Z,16.70
2022-12-24T19:03:43.640Z,18.53
2022-12-24T19:06:11.376Z,17.17
2022-12-24T19:11:26.687Z,15.47
2022-12-24T19:13:54.167Z,22.43
2022-12-24T19:16:22.144Z,17.50
2022-12-24T19:18:49.828Z,14.97
2022-12-24T19:21:17.913Z,14.43
2022-12-24T19:23:46.148Z,15.93
2022-12-24T19:26:14.336Z,14.40
2022-12-24T19:28:41.939Z,15.27
2022-12-24T19:31:10.551Z,16.40
2022-12-24T19:33:42.372Z,16.07
2022-12-24T19:36:11.235Z,13.77
2022-12-24T19:38:38.679Z,14.13
2022-12-24T19:41:07.471Z,14.70
2022-12-24T19:43:37.806Z,13.13
2022-12-24T19:46:05.439Z,16.33
2022-12-24T19:48:33.004Z,14.10
2022-12-24T19:51:01.533Z,15.53
2022-12-24T19:53:29.055Z,13.83
2022-12-24T19:55:56.496Z,14.27
2022-12-24T19:58:23.847Z,15.30
2022-12-24T20:00:51.714Z,15.13
2022-12-24T20:03:19.293Z,14.87
2022-12-24T20:05:46.822Z,15.30
2022-12-24T20:08:14.193Z,15.60
2022-12-24T20:10:42.221Z,15.67
2022-12-24T20:13:10.324Z,16.03
2022-12-24T20:15:41.563Z,16.10
2022-12-24T20:18:09.456Z,15.57
2022-12-24T20:20:37.135Z,15.57
2022-12-24T20:23:04.982Z,16.33
2022-12-24T20:25:35.850Z,16.90
2022-12-24T20:28:03.484Z,17.43
2022-12-24T20:30:31.047Z,17.13
2022-12-24T20:32:58.701Z,17.47
2022-12-24T20:35:26.160Z,16.03
2022-12-24T20:37:53.487Z,17.33
2022-12-24T20:40:20.845Z,18.10
2022-12-24T20:42:48.234Z,18.00
2022-12-24T20:45:16.341Z,17.63
2022-12-24T20:47:43.671Z,17.63
2022-12-24T20:50:11.156Z,17.52
2022-12-24T20:52:38.545Z,18.17
2022-12-24T20:55:06.076Z,17.67
2022-12-24T20:57:36.336Z,20.13
2022-12-24T21:00:05.168Z,17.73
2022-12-24T21:02:32.853Z,17.43
2022-12-24T21:05:02.495Z,18.60
2022-12-24T21:07:30.410Z,17.27
2022-12-24T21:09:57.752Z,15.70
2022-12-24T21:12:43.576Z,17.00
2022-12-24T21:15:11.175Z,16.77
2022-12-24T21:17:38.596Z,16.00
2022-12-24T21:20:06.268Z,17.37
2022-12-24T21:22:33.623Z,16.80
2022-12-24T21:25:00.987Z,16.20
2022-12-24T21:27:29.414Z,16.70
2022-12-24T21:29:56.766Z,16.43
2022-12-24T21:32:24.083Z,16.87
2022-12-24T21:34:51.378Z,15.30
2022-12-24T21:37:19.905Z,15.73
2022-12-24T21:39:47.989Z,15.53
2022-12-24T21:42:15.509Z,17.37
2022-12-24T21:44:42.910Z,14.80
2022-12-24T21:47:11.023Z,15.40
2022-12-24T21:49:57.409Z,17.17
2022-12-24T21:52:24.646Z,16.40
2022-12-24T21:54:52.330Z,15.37
2022-12-24T21:57:55.043Z,16.70
2022-12-24T22:00:22.307Z,14.80
2022-12-24T22:02:51.096Z,13.90
2022-12-24T22:05:18.746Z,13.80
2022-12-24T22:08:04.498Z,13.20
2022-12-24T22:10:50.675Z,12.63
2022-12-24T22:13:18.166Z,13.30
2022-12-24T22:15:49.484Z,12.40
2022-12-24T22:18:17.559Z,13.60
2022-12-24T22:20:45.471Z,11.43
2022-12-24T22:23:13.689Z,12.20
2022-12-24T22:25:41.373Z,11.30
2022-12-24T22:28:08.604Z,12.20
2022-12-24T22:30:42.620Z,11.70
2022-12-24T22:33:10.747Z,11.37
2022-12-24T22:35:39.324Z,10.67
2022-12-24T22:38:07.042Z,11.47
2022-12-24T22:40:34.254Z,11.13
2022-12-24T22:43:01.476Z,10.80
2022-12-24T22:45:28.778Z,11.73
2022-12-24T22:47:56.266Z,11.63
2022-12-24T22:50:23.955Z,11.23
2022-12-24T22:52:52.534Z,10.43
2022-12-24T22:55:20.083Z,10.43
2022-12-24T22:57:47.342Z,62.80
2022-12-24T23:00:16.950Z,40.17
2022-12-24T23:02:44.347Z,11.57
2022-12-24T23:05:13.891Z,10.30
2022-12-24T23:07:41.196Z,9.63
2022-12-24T23:10:09.258Z,10.80
2022-12-24T23:12:56.780Z,12.03
2022-12-24T23:15:24.041Z,10.10
2022-12-24T23:17:51.255Z,10.83
2022-12-24T23:20:18.499Z,9.90
2022-12-24T23:22:45.745Z,9.80
2022-12-24T23:25:12.962Z,10.90
2022-12-24T23:27:40.169Z,11.33
2022-12-24T23:30:07.854Z,9.33
2022-12-24T23:32:35.084Z,10.23
2022-12-24T23:35:02.277Z,8.47
2022-12-24T23:37:34.870Z,9.63
2022-12-24T23:40:03.057Z,9.47
2022-12-24T23:42:30.368Z,9.23
2022-12-24T23:44:57.599Z,10.07
2022-12-24T23:47:24.801Z,10.53
2022-12-24T23:49:52.061Z,9.20
2022-12-24T23:52:19.722Z,10.53
2022-12-24T23:54:46.974Z,9.00
2022-12-24T23:57:14.413Z,12.73
2022-12-24T23:59:41.635Z,10.57
